Etusivu
METAR-TAF:

METAR-TAF

Lentoasemat :

Faribault Municipal Airport

Faribault, Minnesota, Yhdysvallat

Leveyspiiri: 44-20N, Pituuspiiri: 093-19W, korkeus merenpinnasta: 322 m

Tämänhetkinen sää

Tämä raportti tehtiin 23 minuuttia sitten, kello 00.36 UTC
Tuuli 12 kn luoteesta
Lämpötila -12°C
Kosteus 61%
Ilmanpaine 1035 hPa
Näkyvyys: 16.1 km
selkeää

METAR: KFBL 120036Z AUTO 32012KT 10SM CLR M12/M18 A3056 RMK AO2

Aika: 18:59 (00:59 UTC)


TAF: puuttuu

Säähavainnot ja -ennusteet yli 4000 lentoasemalta (METAR- ja TAF-raportit).

Käytössä olevat sääasemat on merkitty karttaan keltaisilla ja punaisilla pisteillä.

Aseta hiiri pisteen päälle nähdäksesi sääaseman nimen.

Klikkaa sitten nähdäksesi säähavainnot ja -ennusteet.

Kartan vaihtaminen: klikkaa mustalla rastilla varustettuja vihreitä pisteitä, niin voit zoomata sisään; viivalla varustettua vihreää pistettä, niin voit zoomata ulos tai vihreitä nuolia, niin pääset viereisille kartoille.


METAR-TAF: